Time;durP1;ratioP1;P1;durP2;ratioP2;P2;SDS_P1;SDS_P2;PMS_P1;PMS_P2;Temp;Humidity;BMP_temperature;BMP_pressure;BME280_temperature;BME280_humidity;BME280_pressure;Samples;Min_cycle;Max_cycle;Signal;HPM_P1;HPM_P2
2023/07/18 00:00:36;;;;;;;7.75;1.15;;;15.10;99.90;;;;;;4995057;28;20092;-35
2023/07/18 00:03:03;;;;;;;5.20;1.30;;;15.10;99.90;;;;;;4990520;28;20054;-34
2023/07/18 00:05:29;;;;;;;7.07;1.60;;;15.10;99.90;;;;;;4993723;28;20045;-35
2023/07/18 00:07:55;;;;;;;5.10;1.42;;;15.20;99.90;;;;;;4999179;28;20076;-35
2023/07/18 00:10:22;;;;;;;4.22;1.25;;;15.20;99.90;;;;;;4998588;28;21038;-35
2023/07/18 00:12:48;;;;;;;3.60;1.40;;;15.20;99.90;;;;;;4990416;28;20136;-34
2023/07/18 00:15:15;;;;;;;5.25;1.50;;;15.20;99.90;;;;;;4995439;28;20088;-35
2023/07/18 00:17:41;;;;;;;8.15;1.58;;;15.20;99.90;;;;;;4999858;28;20046;-35
2023/07/18 00:20:13;;;;;;;5.68;1.33;;;15.10;99.90;;;;;;4996437;28;20486;-35
2023/07/18 00:22:43;;;;;;;2.80;0.90;;;15.10;99.90;;;;;;4981224;28;20054;-36
2023/07/18 00:25:13;;;;;;;7.38;1.75;;;15.10;99.90;;;;;;5004935;28;20492;-35
2023/07/18 00:27:40;;;;;;;2.83;1.23;;;15.10;99.90;;;;;;4995677;28;20042;-36
2023/07/18 00:30:07;;;;;;;4.40;1.35;;;15.00;99.90;;;;;;5005060;28;20128;-35
2023/07/18 00:32:33;;;;;;;3.38;1.17;;;14.90;99.90;;;;;;4993781;28;20074;-35
2023/07/18 00:34:58;;;;;;;6.68;1.38;;;14.90;99.90;;;;;;4993965;28;20138;-35
2023/07/18 00:37:24;;;;;;;3.17;1.17;;;14.80;99.90;;;;;;4993688;28;20046;-35
2023/07/18 00:39:51;;;;;;;6.97;1.77;;;14.80;99.90;;;;;;4992956;28;20061;-36
2023/07/18 00:42:17;;;;;;;2.15;1.10;;;14.80;99.90;;;;;;5007641;28;20046;-35
2023/07/18 00:44:43;;;;;;;2.95;1.20;;;14.70;99.90;;;;;;4990530;28;20058;-35
2023/07/18 00:47:09;;;;;;;3.88;1.10;;;14.70;99.90;;;;;;5000673;28;20046;-35
2023/07/18 00:49:36;;;;;;;6.75;1.75;;;14.60;99.90;;;;;;5004599;28;20050;-35
2023/07/18 00:52:01;;;;;;;3.20;1.20;;;14.60;99.90;;;;;;5008118;28;20077;-35
2023/07/18 00:54:28;;;;;;;5.63;1.73;;;14.50;99.90;;;;;;5001449;28;20080;-36
2023/07/18 00:56:55;;;;;;;3.65;1.50;;;14.40;99.90;;;;;;5000313;28;20061;-35
2023/07/18 00:59:22;;;;;;;4.25;1.15;;;14.40;99.90;;;;;;5005075;28;20050;-35
2023/07/18 01:01:49;;;;;;;9.68;1.75;;;14.40;99.90;;;;;;4995262;28;20092;-35
2023/07/18 01:04:14;;;;;;;5.57;1.35;;;14.40;99.90;;;;;;5002772;28;20078;-35
2023/07/18 01:06:41;;;;;;;4.30;1.60;;;14.40;99.90;;;;;;4994488;28;20073;-35
2023/07/18 01:09:08;;;;;;;3.90;1.30;;;14.40;99.90;;;;;;4992311;28;20046;-35
2023/07/18 01:11:34;;;;;;;4.90;1.50;;;14.40;99.90;;;;;;5004161;28;20056;-35
2023/07/18 01:13:59;;;;;;;5.13;1.63;;;14.40;99.90;;;;;;4998757;28;20404;-35
2023/07/18 01:16:25;;;;;;;6.90;1.88;;;14.40;99.90;;;;;;4991456;28;20079;-36
2023/07/18 01:18:52;;;;;;;2.85;1.40;;;14.40;99.90;;;;;;5002601;28;20074;-35
2023/07/18 01:21:21;;;;;;;2.92;1.10;;;14.40;99.90;;;;;;4996044;28;20060;-35
2023/07/18 01:23:47;;;;;;;4.05;1.20;;;14.40;99.90;;;;;;4995351;28;20067;-35
2023/07/18 01:26:13;;;;;;;3.63;1.00;;;14.40;99.90;;;;;;5002103;28;20061;-35
2023/07/18 01:28:39;;;;;;;4.93;1.10;;;14.40;99.90;;;;;;4997782;28;20493;-35
2023/07/18 01:31:05;;;;;;;3.97;1.30;;;14.40;99.90;;;;;;4997501;28;20112;-35
2023/07/18 01:33:32;;;;;;;7.63;1.50;;;14.30;99.90;;;;;;5009670;28;20365;-35
2023/07/18 01:35:58;;;;;;;5.47;1.20;;;14.30;99.90;;;;;;5004668;28;20061;-36
2023/07/18 01:38:29;;;;;;;5.97;1.35;;;14.30;99.90;;;;;;4996007;28;20072;-35
2023/07/18 01:41:01;;;;;;;4.78;1.45;;;14.20;99.90;;;;;;4997386;28;20046;-35
2023/07/18 01:43:27;;;;;;;6.50;1.92;;;14.20;99.90;;;;;;4997054;28;20078;-35
2023/07/18 01:46:00;;;;;;;6.43;1.20;;;14.20;99.90;;;;;;5006528;28;20053;-35
2023/07/18 01:48:26;;;;;;;4.57;1.58;;;14.20;99.90;;;;;;4993200;28;20081;-35
2023/07/18 01:50:52;;;;;;;4.65;1.85;;;14.20;99.90;;;;;;5006578;28;20045;-35
2023/07/18 01:53:18;;;;;;;4.45;1.27;;;14.20;99.90;;;;;;5004122;28;20514;-35
2023/07/18 01:55:44;;;;;;;4.40;1.25;;;14.20;99.90;;;;;;4996124;28;20070;-35
2023/07/18 01:58:10;;;;;;;2.10;1.02;;;14.30;99.90;;;;;;5001056;28;20416;-36
2023/07/18 02:00:35;;;;;;;6.20;1.30;;;14.30;99.90;;;;;;4986092;28;20531;-35
2023/07/18 02:03:02;;;;;;;2.88;1.40;;;14.20;99.90;;;;;;4999259;28;20630;-34
2023/07/18 02:05:30;;;;;;;6.88;1.50;;;14.20;99.90;;;;;;4998646;28;20056;-35
2023/07/18 02:07:57;;;;;;;8.05;1.95;;;14.20;99.90;;;;;;4984817;28;20504;-36
2023/07/18 02:10:24;;;;;;;4.53;1.50;;;14.20;99.90;;;;;;4990953;28;20053;-35
2023/07/18 02:12:52;;;;;;;3.75;1.55;;;14.10;99.90;;;;;;4985823;28;20059;-35
2023/07/18 02:15:19;;;;;;;5.85;1.48;;;14.10;99.90;;;;;;4999354;28;20049;-35
2023/07/18 02:17:45;;;;;;;5.40;1.27;;;14.10;99.90;;;;;;4994982;28;20111;-35
2023/07/18 02:20:12;;;;;;;6.82;2.13;;;14.00;99.90;;;;;;4993569;28;20505;-36
2023/07/18 02:22:39;;;;;;;5.55;1.50;;;14.00;99.90;;;;;;5001376;28;20062;-36
2023/07/18 02:25:05;;;;;;;6.18;1.20;;;14.00;99.90;;;;;;5003074;28;20464;-35
2023/07/18 02:27:32;;;;;;;9.68;1.20;;;14.00;99.90;;;;;;5004885;28;20046;-36
2023/07/18 02:30:00;;;;;;;7.85;1.35;;;13.90;99.90;;;;;;5002887;28;20531;-36
2023/07/18 02:32:29;;;;;;;6.50;1.30;;;14.00;99.90;;;;;;5005624;28;20045;-35
2023/07/18 02:34:55;;;;;;;4.60;1.38;;;13.90;99.90;;;;;;5003891;28;20484;-36
2023/07/18 02:37:20;;;;;;;5.25;1.20;;;13.90;99.90;;;;;;5007245;28;20092;-36
2023/07/18 02:39:46;;;;;;;4.82;1.10;;;13.90;99.90;;;;;;5002754;28;20132;-35
2023/07/18 02:42:12;;;;;;;3.67;1.80;;;13.90;99.90;;;;;;5004989;28;20096;-36
2023/07/18 02:44:37;;;;;;;5.03;1.42;;;13.90;99.90;;;;;;5007581;28;20053;-35
2023/07/18 02:47:04;;;;;;;7.15;1.60;;;13.90;99.90;;;;;;5000266;28;20049;-36
2023/07/18 02:49:30;;;;;;;5.95;1.88;;;13.90;99.90;;;;;;4999080;28;20077;-35
2023/07/18 02:51:55;;;;;;;5.38;1.63;;;13.80;99.90;;;;;;5002684;28;20077;-35
2023/07/18 02:54:22;;;;;;;6.63;1.58;;;13.80;99.90;;;;;;5002391;28;20054;-35
2023/07/18 02:56:48;;;;;;;5.05;1.75;;;13.80;99.90;;;;;;5003058;28;20050;-35
2023/07/18 02:59:14;;;;;;;8.40;1.67;;;13.70;99.90;;;;;;4999782;28;20504;-36
2023/07/18 03:01:40;;;;;;;4.30;1.40;;;13.70;99.90;;;;;;5007132;28;20057;-35
2023/07/18 03:04:05;;;;;;;4.65;1.35;;;13.70;99.90;;;;;;5001864;28;20118;-35
2023/07/18 03:06:31;;;;;;;5.43;1.35;;;13.60;99.90;;;;;;5006270;28;20545;-35
2023/07/18 03:08:57;;;;;;;8.82;1.42;;;13.70;99.90;;;;;;5003093;28;20480;-35
2023/07/18 03:11:23;;;;;;;3.15;1.10;;;13.70;99.90;;;;;;4998893;28;20081;-35
2023/07/18 03:13:49;;;;;;;5.60;2.20;;;13.60;99.90;;;;;;4992885;28;20116;-35
2023/07/18 03:16:15;;;;;;;5.03;1.50;;;13.60;99.90;;;;;;4995984;28;20760;-35
2023/07/18 03:18:41;;;;;;;7.90;1.90;;;13.70;99.90;;;;;;4996657;28;20087;-36
2023/07/18 03:21:07;;;;;;;5.13;1.25;;;13.70;99.90;;;;;;4990417;28;20061;-35
2023/07/18 03:23:32;;;;;;;3.78;1.17;;;13.70;99.90;;;;;;4990358;28;20104;-36
2023/07/18 03:25:58;;;;;;;6.97;1.45;;;13.70;99.90;;;;;;4988759;28;20049;-35
2023/07/18 03:28:24;;;;;;;3.53;1.08;;;13.70;99.90;;;;;;4993229;28;20073;-35
2023/07/18 03:30:49;;;;;;;4.22;1.48;;;13.70;99.90;;;;;;4990183;28;20057;-36
2023/07/18 03:33:15;;;;;;;3.72;1.13;;;13.70;99.90;;;;;;4989564;28;20569;-36
2023/07/18 03:35:41;;;;;;;5.45;1.55;;;13.70;99.90;;;;;;4992019;28;20104;-35
2023/07/18 03:38:06;;;;;;;4.50;1.23;;;13.70;99.90;;;;;;4987042;28;20077;-36
2023/07/18 03:40:32;;;;;;;2.95;1.20;;;13.70;99.90;;;;;;4986194;28;20461;-35
2023/07/18 03:42:58;;;;;;;7.82;1.30;;;13.60;99.90;;;;;;4990929;28;20474;-35
2023/07/18 03:45:23;;;;;;;5.90;1.40;;;13.60;99.90;;;;;;4988461;28;20074;-35
2023/07/18 03:47:49;;;;;;;2.90;0.90;;;13.60;99.90;;;;;;5001939;28;20049;-35
2023/07/18 03:50:18;;;;;;;4.97;1.45;;;13.60;99.90;;;;;;4988026;28;20108;-36
2023/07/18 03:52:43;;;;;;;7.82;1.60;;;13.60;99.90;;;;;;4993351;28;20054;-35
2023/07/18 03:55:09;;;;;;;3.90;1.42;;;13.50;99.90;;;;;;4989319;28;20048;-36
2023/07/18 03:57:35;;;;;;;5.22;1.17;;;13.50;99.90;;;;;;4992463;28;20188;-35
2023/07/18 04:00:06;;;;;;;6.30;1.98;;;13.50;99.90;;;;;;4984238;28;20065;-35
2023/07/18 04:02:32;;;;;;;3.50;1.10;;;13.50;99.90;;;;;;4988501;28;20081;-35
2023/07/18 04:04:57;;;;;;;3.97;1.40;;;13.40;99.90;;;;;;4988121;28;20246;-35
2023/07/18 04:07:24;;;;;;;5.35;1.48;;;13.40;99.90;;;;;;4988610;28;20571;-35
2023/07/18 04:09:50;;;;;;;5.72;2.05;;;13.40;99.90;;;;;;4990490;28;20054;-36
2023/07/18 04:12:16;;;;;;;5.20;1.08;;;13.50;99.90;;;;;;4986549;28;20049;-35
2023/07/18 04:14:43;;;;;;;5.07;1.35;;;13.50;99.90;;;;;;4990444;28;20524;-35
2023/07/18 04:17:09;;;;;;;4.13;1.38;;;13.50;99.90;;;;;;4985993;28;20084;-36
2023/07/18 04:19:35;;;;;;;4.30;1.30;;;13.50;99.90;;;;;;4995718;28;20717;-36
2023/07/18 04:22:01;;;;;;;4.85;1.98;;;13.60;99.90;;;;;;4985547;28;20139;-35
2023/07/18 04:24:26;;;;;;;7.40;1.30;;;13.60;99.90;;;;;;4991216;28;20053;-35
2023/07/18 04:26:52;;;;;;;7.40;1.45;;;13.70;99.90;;;;;;4988315;28;20046;-35
2023/07/18 04:29:18;;;;;;;5.15;1.33;;;13.70;99.90;;;;;;4987188;28;20050;-35
2023/07/18 04:31:45;;;;;;;4.97;1.58;;;13.80;99.90;;;;;;4989464;28;20500;-36
2023/07/18 04:34:11;;;;;;;7.78;1.40;;;13.80;99.90;;;;;;4985664;28;20139;-36
2023/07/18 04:36:37;;;;;;;4.07;1.02;;;13.80;99.90;;;;;;4984317;28;20088;-35
2023/07/18 04:39:03;;;;;;;4.65;1.10;;;13.80;99.90;;;;;;4985059;28;20137;-35
2023/07/18 04:41:29;;;;;;;8.40;1.20;;;13.90;99.90;;;;;;4989073;28;20058;-35
2023/07/18 04:43:55;;;;;;;3.20;1.13;;;13.90;99.90;;;;;;4989110;28;20053;-36
2023/07/18 04:46:20;;;;;;;3.38;1.13;;;13.90;99.90;;;;;;4988025;28;20876;-35
2023/07/18 04:48:46;;;;;;;2.88;0.98;;;14.00;99.90;;;;;;4991160;28;20125;-36
2023/07/18 04:51:12;;;;;;;4.47;1.15;;;14.00;99.90;;;;;;4987514;28;20140;-35
2023/07/18 04:53:37;;;;;;;5.60;1.45;;;14.10;99.90;;;;;;4988343;28;20054;-35
2023/07/18 04:56:05;;;;;;;6.05;1.30;;;14.10;99.90;;;;;;4988439;28;20060;-35
2023/07/18 04:58:31;;;;;;;7.93;1.25;;;14.10;99.90;;;;;;4993015;28;20057;-35
2023/07/18 05:00:59;;;;;;;8.60;1.35;;;14.10;99.90;;;;;;4994009;28;20077;-35
2023/07/18 05:03:25;;;;;;;6.00;1.95;;;14.20;99.90;;;;;;4976605;28;20408;-35
2023/07/18 05:05:51;;;;;;;3.92;1.02;;;14.20;99.90;;;;;;4973259;28;20078;-35
2023/07/18 05:08:17;;;;;;;4.05;1.17;;;14.20;99.90;;;;;;4974092;28;20295;-35
2023/07/18 05:10:43;;;;;;;4.00;1.42;;;14.20;99.90;;;;;;4981942;28;20626;-35
2023/07/18 05:13:10;;;;;;;4.32;1.05;;;14.20;99.90;;;;;;4980890;28;20129;-35
2023/07/18 05:15:36;;;;;;;6.30;1.45;;;14.30;99.90;;;;;;4985091;28;20558;-35
2023/07/18 05:18:02;;;;;;;5.10;1.08;;;14.30;99.90;;;;;;4981274;28;20053;-34
2023/07/18 05:20:28;;;;;;;6.93;1.75;;;14.30;99.90;;;;;;4988714;28;21534;-36
2023/07/18 05:22:54;;;;;;;4.40;1.55;;;14.30;99.90;;;;;;4983206;28;20548;-36
2023/07/18 05:25:19;;;;;;;5.72;1.40;;;14.30;99.90;;;;;;4981515;28;21757;-35
2023/07/18 05:27:45;;;;;;;5.68;1.20;;;14.30;99.90;;;;;;4982836;28;20058;-35
2023/07/18 05:30:16;;;;;;;4.15;1.10;;;14.40;99.90;;;;;;4985021;28;20069;-36
2023/07/18 05:32:42;;;;;;;4.45;1.70;;;14.40;99.90;;;;;;4992236;28;20073;-36
2023/07/18 05:35:13;;;;;;;5.28;1.65;;;14.50;99.90;;;;;;4989959;28;20046;-36
2023/07/18 05:37:40;;;;;;;3.80;1.42;;;14.60;99.90;;;;;;4987844;28;20599;-36
2023/07/18 05:40:10;;;;;;;5.15;1.60;;;14.60;99.90;;;;;;4983797;28;20515;-36
2023/07/18 05:42:37;;;;;;;7.80;1.60;;;14.70;99.90;;;;;;5013616;28;20144;-36
2023/07/18 05:45:04;;;;;;;3.65;1.40;;;14.70;99.90;;;;;;4994948;28;20077;-33
2023/07/18 05:47:29;;;;;;;5.60;1.60;;;14.80;99.90;;;;;;4985126;28;20054;-36
2023/07/18 05:49:55;;;;;;;6.00;1.33;;;14.90;99.90;;;;;;4995514;28;20877;-36
2023/07/18 05:52:20;;;;;;;4.53;1.63;;;15.00;99.90;;;;;;5004506;28;20526;-36
2023/07/18 05:54:46;;;;;;;4.57;1.35;;;15.10;99.90;;;;;;4995617;28;20062;-33
2023/07/18 05:57:13;;;;;;;4.97;1.27;;;15.20;99.90;;;;;;5001956;28;20137;-36
2023/07/18 05:59:39;;;;;;;4.85;1.23;;;15.30;99.90;;;;;;4991585;28;20484;-34
2023/07/18 06:02:05;;;;;;;7.20;1.40;;;15.40;99.90;;;;;;4991193;28;20050;-36
2023/07/18 06:04:30;;;;;;;4.32;1.35;;;15.50;99.90;;;;;;4986588;28;20053;-36
2023/07/18 06:06:56;;;;;;;3.53;1.33;;;15.60;99.90;;;;;;4992169;28;20054;-34
2023/07/18 06:09:22;;;;;;;5.60;1.15;;;15.60;99.90;;;;;;4994952;28;20046;-34
2023/07/18 06:11:48;;;;;;;7.75;1.45;;;15.70;99.90;;;;;;4999435;28;20055;-35
2023/07/18 06:14:13;;;;;;;6.28;1.83;;;15.70;99.90;;;;;;4998899;28;20052;-34
2023/07/18 06:16:39;;;;;;;4.68;1.60;;;15.80;99.90;;;;;;4988650;28;20050;-35
2023/07/18 06:19:04;;;;;;;3.28;1.20;;;15.80;99.90;;;;;;4993823;28;20064;-35
2023/07/18 06:21:30;;;;;;;4.72;1.02;;;15.80;99.90;;;;;;4996620;28;20080;-35
2023/07/18 06:23:57;;;;;;;2.92;1.17;;;15.90;99.90;;;;;;4995289;28;20093;-35
2023/07/18 06:26:23;;;;;;;3.10;0.98;;;16.00;99.90;;;;;;4998250;28;20078;-34
2023/07/18 06:28:49;;;;;;;7.28;1.10;;;16.10;99.90;;;;;;4992160;28;20666;-35
2023/07/18 06:31:15;;;;;;;3.65;1.27;;;16.20;99.90;;;;;;4994334;28;20416;-35
2023/07/18 06:33:41;;;;;;;3.85;0.93;;;16.30;99.90;;;;;;5001702;28;20053;-35
2023/07/18 06:36:07;;;;;;;5.97;1.27;;;16.40;99.90;;;;;;4998436;28;20069;-34
2023/07/18 06:38:33;;;;;;;6.15;1.38;;;16.50;99.90;;;;;;4995991;28;20109;-35
2023/07/18 06:40:59;;;;;;;4.07;0.93;;;16.60;99.90;;;;;;4990830;28;20061;-35
2023/07/18 06:43:27;;;;;;;3.67;0.90;;;16.70;99.90;;;;;;4992267;28;20053;-35
2023/07/18 06:45:53;;;;;;;3.97;1.15;;;16.80;99.90;;;;;;4994757;28;20053;-35
2023/07/18 06:48:19;;;;;;;5.55;1.40;;;16.90;99.90;;;;;;4989846;28;20060;-35
2023/07/18 06:50:46;;;;;;;4.10;1.10;;;16.90;99.90;;;;;;4987102;28;20133;-35
2023/07/18 06:53:18;;;;;;;4.65;0.95;;;17.00;99.90;;;;;;4988756;28;20750;-36
2023/07/18 06:55:44;;;;;;;5.03;1.40;;;17.10;99.90;;;;;;4997590;28;20050;-36
2023/07/18 06:58:09;;;;;;;4.57;1.15;;;17.10;99.90;;;;;;4998542;28;20064;-36
2023/07/18 07:00:36;;;;;;;5.85;1.08;;;17.20;99.90;;;;;;5001190;28;20064;-36
2023/07/18 07:03:02;;;;;;;5.20;1.13;;;17.30;99.90;;;;;;5002347;28;20046;-36
2023/07/18 07:05:28;;;;;;;4.57;1.33;;;17.40;99.90;;;;;;4998063;28;20303;-36
2023/07/18 07:07:54;;;;;;;3.10;1.00;;;17.40;99.90;;;;;;5017065;28;20486;-36
2023/07/18 07:10:20;;;;;;;5.50;1.20;;;17.40;99.90;;;;;;4990018;28;20101;-36
2023/07/18 07:12:45;;;;;;;4.88;1.42;;;17.50;99.90;;;;;;5000364;28;20508;-36
2023/07/18 07:15:14;;;;;;;4.75;1.45;;;17.60;99.90;;;;;;4991314;28;20064;-35
2023/07/18 07:17:40;;;;;;;6.70;1.90;;;17.70;99.90;;;;;;4986095;28;20250;-35
2023/07/18 07:20:07;;;;;;;4.82;1.10;;;17.70;99.90;;;;;;4995984;28;20058;-36
2023/07/18 07:22:33;;;;;;;8.55;1.30;;;17.80;99.90;;;;;;5004953;28;20144;-35
2023/07/18 07:24:58;;;;;;;6.95;1.20;;;17.90;99.90;;;;;;4983965;28;20050;-35
2023/07/18 07:27:24;;;;;;;4.28;1.17;;;18.00;99.90;;;;;;5002709;28;20054;-35
2023/07/18 07:29:51;;;;;;;5.07;1.30;;;18.20;99.90;;;;;;4995991;28;20124;-35
2023/07/18 07:32:16;;;;;;;3.90;1.20;;;18.20;99.90;;;;;;4997909;28;20508;-35
2023/07/18 07:34:43;;;;;;;6.13;1.27;;;18.20;99.90;;;;;;5000170;28;20108;-35
2023/07/18 07:37:10;;;;;;;4.13;1.65;;;18.20;99.90;;;;;;4999375;28;20065;-36
2023/07/18 07:39:36;;;;;;;5.10;1.27;;;18.30;99.90;;;;;;5003901;28;20050;-35
2023/07/18 07:42:01;;;;;;;3.85;1.23;;;18.40;99.90;;;;;;5000913;28;20511;-35
2023/07/18 07:44:27;;;;;;;6.43;1.88;;;18.50;99.90;;;;;;4994346;28;20082;-35
2023/07/18 07:46:55;;;;;;;6.57;2.08;;;18.60;99.90;;;;;;4983157;28;20052;-35
2023/07/18 07:49:21;;;;;;;7.53;1.65;;;18.60;99.90;;;;;;4998819;28;20104;-35
2023/07/18 07:51:47;;;;;;;5.82;1.25;;;18.70;99.90;;;;;;4994230;28;20050;-35
2023/07/18 07:54:12;;;;;;;4.68;1.25;;;18.70;99.90;;;;;;4999479;28;20050;-35
2023/07/18 07:56:38;;;;;;;9.70;2.92;;;18.90;99.90;;;;;;4988117;28;20080;-37
2023/07/18 07:59:03;;;;;;;9.43;2.05;;;19.00;99.90;;;;;;4998027;28;20050;-36
2023/07/18 08:01:29;;;;;;;5.47;1.33;;;19.10;99.90;;;;;;4999483;28;20137;-35
2023/07/18 08:03:55;;;;;;;6.35;1.75;;;19.10;99.90;;;;;;4995927;28;20054;-35
2023/07/18 08:06:21;;;;;;;4.88;1.30;;;19.20;99.90;;;;;;4986857;28;20054;-35
2023/07/18 08:08:46;;;;;;;6.63;1.40;;;19.20;99.90;;;;;;5002017;28;20495;-35
2023/07/18 08:11:12;;;;;;;7.88;1.83;;;19.30;99.90;;;;;;4986205;28;20061;-35
2023/07/18 08:13:38;;;;;;;7.90;1.63;;;19.30;99.90;;;;;;4983501;28;20574;-35
2023/07/18 08:16:05;;;;;;;7.43;1.60;;;19.40;99.90;;;;;;5000906;28;20061;-35
2023/07/18 08:18:31;;;;;;;4.13;1.13;;;19.50;99.90;;;;;;4992476;28;20125;-35
2023/07/18 08:20:56;;;;;;;8.50;1.90;;;19.70;99.90;;;;;;4993468;28;20076;-35
2023/07/18 08:23:22;;;;;;;7.97;2.33;;;19.60;99.90;;;;;;4997233;28;20061;-35
2023/07/18 08:25:49;;;;;;;7.60;1.60;;;19.60;99.90;;;;;;4987759;28;20042;-35
2023/07/18 08:28:14;;;;;;;7.53;1.65;;;19.60;99.90;;;;;;4993210;28;20079;-35
2023/07/18 08:30:40;;;;;;;9.07;1.58;;;19.70;99.90;;;;;;4993855;28;20053;-35
2023/07/18 08:33:10;;;;;;;9.63;1.80;;;19.70;99.90;;;;;;4997431;28;20467;-35
2023/07/18 08:35:37;;;;;;;7.93;1.35;;;19.80;99.90;;;;;;4998260;28;20053;-35
2023/07/18 08:38:04;;;;;;;6.18;1.52;;;19.90;99.90;;;;;;4993724;28;20125;-35
2023/07/18 08:40:30;;;;;;;5.43;1.33;;;20.00;99.90;;;;;;4993199;28;20408;-35
2023/07/18 08:42:56;;;;;;;7.07;1.88;;;20.00;99.90;;;;;;4994618;28;20062;-35
2023/07/18 08:45:26;;;;;;;11.00;2.72;;;20.00;99.90;;;;;;4991832;28;20041;-35
2023/07/18 08:47:56;;;;;;;5.80;1.25;;;20.00;99.90;;;;;;5002500;28;20046;-35
2023/07/18 08:50:23;;;;;;;6.05;1.15;;;20.20;99.90;;;;;;4999940;28;20487;-35
2023/07/18 08:52:48;;;;;;;5.60;1.30;;;20.30;99.90;;;;;;4993299;28;20107;-35
2023/07/18 08:55:14;;;;;;;6.43;1.20;;;20.40;99.90;;;;;;4996520;28;20050;-35
2023/07/18 08:57:41;;;;;;;3.25;1.08;;;20.50;99.90;;;;;;4988657;28;20511;-35
2023/07/18 09:00:07;;;;;;;6.70;1.70;;;20.70;99.90;;;;;;5012290;28;20053;-35
2023/07/18 09:02:33;;;;;;;3.63;1.17;;;20.80;99.90;;;;;;5001127;28;20491;-35
2023/07/18 09:04:59;;;;;;;7.07;1.10;;;20.90;99.90;;;;;;4990306;28;21636;-35
2023/07/18 09:07:27;;;;;;;4.07;1.00;;;21.10;99.90;;;;;;4997224;28;20057;-35
2023/07/18 09:09:57;;;;;;;5.68;0.60;;;21.20;99.90;;;;;;4996394;28;20053;-35
2023/07/18 09:12:23;;;;;;;4.40;0.80;;;21.30;99.90;;;;;;4986708;28;20050;-35
2023/07/18 09:14:55;;;;;;;3.90;1.00;;;21.40;99.90;;;;;;5007325;28;20393;-35
2023/07/18 09:17:21;;;;;;;5.60;0.93;;;21.40;99.90;;;;;;4999628;28;20099;-35
2023/07/18 09:19:48;;;;;;;2.70;0.73;;;21.50;99.90;;;;;;5004287;28;20054;-35
2023/07/18 09:22:17;;;;;;;5.13;0.70;;;21.60;99.90;;;;;;5000865;28;20055;-35
2023/07/18 09:24:43;;;;;;;4.93;1.08;;;21.70;99.90;;;;;;5000186;28;20050;-35
2023/07/18 09:27:19;;;;;;;6.63;1.20;;;21.70;99.90;;;;;;5008261;28;20038;-35
2023/07/18 09:29:46;;;;;;;3.78;0.65;;;21.60;99.90;;;;;;4994630;28;20046;-35
2023/07/18 09:32:17;;;;;;;1.95;0.40;;;21.60;99.90;;;;;;5000628;28;20065;-35
2023/07/18 09:34:54;;;;;;;2.92;0.52;;;21.60;99.90;;;;;;5004858;28;20049;-35
2023/07/18 09:37:19;;;;;;;1.98;0.80;;;21.70;99.90;;;;;;4991445;28;20050;-35
2023/07/18 09:39:46;;;;;;;2.85;0.60;;;21.70;99.90;;;;;;4987894;28;20069;-35
2023/07/18 09:42:12;;;;;;;5.05;0.82;;;21.80;99.90;;;;;;4999552;28;20058;-36
2023/07/18 09:44:40;;;;;;;3.63;0.50;;;21.80;99.90;;;;;;5006126;28;20045;-36
2023/07/18 09:47:06;;;;;;;4.50;0.60;;;21.90;99.90;;;;;;4992336;28;20066;-36
2023/07/18 09:49:33;;;;;;;4.72;0.65;;;22.00;99.90;;;;;;4997280;28;20087;-36
2023/07/18 09:52:06;;;;;;;2.35;0.57;;;22.20;99.90;;;;;;4998877;28;20534;-36
2023/07/18 09:54:32;;;;;;;;;;;22.20;99.90;;;;;;5005511;28;20392;-35
2023/07/18 09:57:08;;;;;;;2.42;0.70;;;22.10;99.90;;;;;;4991510;28;19921;-36
2023/07/18 09:59:37;;;;;;;2.50;0.55;;;22.30;99.90;;;;;;5004693;28;20389;-36
2023/07/18 10:02:06;;;;;;;1.52;0.52;;;22.50;99.90;;;;;;4999682;28;20065;-36
2023/07/18 10:04:33;;;;;;;2.28;0.40;;;22.50;99.90;;;;;;5006637;28;20046;-36
2023/07/18 10:07:00;;;;;;;3.55;1.00;;;22.60;99.90;;;;;;4989523;28;20133;-35
2023/07/18 10:09:27;;;;;;;2.10;0.55;;;22.70;99.90;;;;;;5001975;28;20054;-36
2023/07/18 10:11:59;;;;;;;2.63;0.85;;;22.80;99.90;;;;;;5018426;28;20140;-36
2023/07/18 10:14:28;;;;;;;1.52;0.50;;;22.80;99.90;;;;;;4999822;28;20495;-36
2023/07/18 10:16:55;;;;;;;2.58;0.65;;;22.90;99.90;;;;;;4995550;28;20050;-35
2023/07/18 10:19:24;;;;;;;4.72;0.80;;;22.90;99.90;;;;;;4984827;28;20065;-35
2023/07/18 10:21:56;;;;;;;3.13;0.52;;;22.90;99.90;;;;;;4990549;28;20061;-35
2023/07/18 10:24:28;;;;;;;3.08;0.60;;;23.00;99.90;;;;;;4985991;28;20054;-36
2023/07/18 10:26:59;;;;;;;2.97;0.30;;;23.00;99.90;;;;;;4990080;28;20515;-35
2023/07/18 10:29:31;;;;;;;1.07;0.30;;;23.00;99.90;;;;;;4995000;28;20047;-35
2023/07/18 10:31:59;;;;;;;;;;;23.00;99.90;;;;;;4990381;28;20133;-35
2023/07/18 10:34:25;;;;;;;3.65;0.68;;;23.00;99.90;;;;;;4988084;28;19975;-36
2023/07/18 10:36:57;;;;;;;1.65;0.40;;;22.90;99.90;;;;;;4993921;28;20053;-35
2023/07/18 10:39:45;;;;;;;2.50;0.40;;;22.80;99.90;;;;;;4998442;28;20054;-36
2023/07/18 10:42:23;;;;;;;1.77;0.40;;;22.80;99.90;;;;;;4984628;28;20049;-36
2023/07/18 10:44:57;;;;;;;2.40;0.63;;;22.90;99.90;;;;;;4996865;28;20050;-35
2023/07/18 10:47:23;;;;;;;2.20;0.40;;;23.00;99.90;;;;;;4984557;28;20125;-35
2023/07/18 10:49:49;;;;;;;2.97;0.50;;;23.20;99.90;;;;;;4990147;28;20175;-36
2023/07/18 10:52:16;;;;;;;3.13;0.50;;;23.20;99.90;;;;;;4994732;28;20136;-35
2023/07/18 10:54:55;;;;;;;2.28;0.40;;;23.20;99.90;;;;;;5003181;28;20049;-35
2023/07/18 10:57:32;;;;;;;2.05;0.30;;;23.20;99.90;;;;;;4993073;28;20099;-36
2023/07/18 10:59:59;;;;;;;1.60;0.40;;;23.20;99.90;;;;;;4989818;28;20065;-36
2023/07/18 11:02:27;;;;;;;1.33;0.60;;;23.30;99.90;;;;;;4991820;28;20050;-36
2023/07/18 11:04:53;;;;;;;4.38;1.08;;;23.40;99.90;;;;;;4996918;28;20548;-35
2023/07/18 11:07:33;;;;;;;2.70;0.47;;;23.60;99.90;;;;;;4997688;28;20061;-36
2023/07/18 11:09:59;;;;;;;4.50;0.55;;;23.70;99.90;;;;;;4990565;28;20049;-36
2023/07/18 11:12:25;;;;;;;3.42;0.75;;;23.80;99.90;;;;;;4998792;28;20053;-36
2023/07/18 11:14:50;;;;;;;1.75;0.40;;;24.10;99.90;;;;;;4999160;28;20057;-36
2023/07/18 11:17:19;;;;;;;3.05;0.73;;;24.20;99.90;;;;;;4995453;28;20058;-36
2023/07/18 11:19:46;;;;;;;1.55;0.50;;;24.30;99.90;;;;;;5007731;28;20050;-36
2023/07/18 11:22:13;;;;;;;2.72;0.65;;;24.20;99.90;;;;;;4986107;28;20078;-35
2023/07/18 11:24:41;;;;;;;3.20;0.63;;;24.20;99.90;;;;;;4996690;28;20077;-35
2023/07/18 11:27:26;;;;;;;1.75;0.52;;;24.20;99.90;;;;;;4997046;28;20045;-37
2023/07/18 11:29:58;;;;;;;2.42;0.40;;;24.40;99.90;;;;;;4992575;28;20405;-36
2023/07/18 11:32:31;;;;;;;;;;;24.40;99.90;;;;;;4996155;28;20497;-36
2023/07/18 11:34:58;;;;;;;2.95;0.70;;;24.50;99.90;;;;;;5001915;28;20454;-36
2023/07/18 11:37:24;;;;;;;3.38;0.60;;;24.50;99.90;;;;;;4991195;28;20049;-36
2023/07/18 11:39:50;;;;;;;1.52;0.50;;;24.30;99.90;;;;;;4997277;28;20066;-35
2023/07/18 11:42:17;;;;;;;2.85;0.60;;;24.40;99.90;;;;;;4992256;28;20077;-35
2023/07/18 11:44:44;;;;;;;3.97;0.70;;;24.40;99.90;;;;;;4990121;28;20098;-35
2023/07/18 11:47:13;;;;;;;5.30;0.80;;;24.40;99.90;;;;;;5009359;28;20046;-35
2023/07/18 11:49:39;;;;;;;4.15;0.73;;;24.50;99.90;;;;;;4992523;28;20068;-35
2023/07/18 11:52:07;;;;;;;3.88;0.60;;;24.40;99.90;;;;;;4991360;28;20535;-34
2023/07/18 11:54:35;;;;;;;2.15;0.70;;;24.50;99.90;;;;;;5001391;28;20053;-34
2023/07/18 11:57:03;;;;;;;3.70;0.95;;;24.60;99.90;;;;;;5002053;28;20133;-34
2023/07/18 11:59:32;;;;;;;4.47;0.73;;;24.80;99.90;;;;;;5001071;28;20042;-34
2023/07/18 12:01:57;;;;;;;1.58;0.65;;;24.90;99.90;;;;;;4999769;28;20061;-34
2023/07/18 12:04:23;;;;;;;2.63;0.70;;;25.00;99.90;;;;;;4995069;28;20042;-34
2023/07/18 12:06:49;;;;;;;4.03;0.80;;;25.10;99.90;;;;;;4993966;28;20050;-34
2023/07/18 12:09:15;;;;;;;3.47;0.93;;;25.30;99.90;;;;;;5010937;28;20165;-34
2023/07/18 12:11:42;;;;;;;2.63;0.60;;;25.30;99.90;;;;;;4994152;28;20119;-34
2023/07/18 12:14:08;;;;;;;3.42;0.75;;;25.20;99.90;;;;;;5000921;28;20136;-34
2023/07/18 12:16:36;;;;;;;4.13;0.80;;;25.10;99.90;;;;;;4994941;28;20407;-34
2023/07/18 12:19:02;;;;;;;3.72;0.55;;;25.10;99.90;;;;;;4993681;28;20046;-34
2023/07/18 12:21:28;;;;;;;2.63;0.73;;;25.10;99.90;;;;;;4999499;28;20064;-34
2023/07/18 12:23:54;;;;;;;3.88;1.15;;;25.10;99.90;;;;;;4985771;28;20043;-34
2023/07/18 12:26:20;;;;;;;4.15;0.65;;;25.00;99.90;;;;;;4988024;28;20168;-34
2023/07/18 12:28:45;;;;;;;3.15;0.80;;;24.90;99.90;;;;;;4996551;28;20504;-34
2023/07/18 12:31:11;;;;;;;1.60;0.57;;;24.80;99.90;;;;;;4984299;28;20081;-34
2023/07/18 12:33:38;;;;;;;3.97;0.70;;;24.80;99.90;;;;;;4988523;28;20050;-34
2023/07/18 12:36:05;;;;;;;2.78;0.60;;;24.80;99.90;;;;;;4997337;28;20788;-34
2023/07/18 12:38:30;;;;;;;2.47;0.63;;;24.80;99.90;;;;;;4990067;28;20053;-36
2023/07/18 12:40:56;;;;;;;2.72;0.80;;;24.80;99.90;;;;;;4993704;28;20554;-35
2023/07/18 12:43:22;;;;;;;5.40;0.75;;;25.00;99.90;;;;;;5004146;28;20051;-36
2023/07/18 12:45:48;;;;;;;3.67;0.70;;;25.10;99.90;;;;;;4991606;28;20544;-34